• Join FlightAware (Why Join?)
  • Login
  • US Flag 
08:42PM EDT


 

Airport Tracker/Info


-or-


 

Live Flight TrackerFlight Track Log ✈ LYM1725 ✈ 10-May-2013 ✈ KDEN - KRIW

Flight Track Log - Related Links

Times and Time Zones

All times are in EDT time to prevent confusion due to time zone crossing. See the LYM1725 flight status page for this flight to view local times or setup timezone preferences in your user account.

Time Position Orientation Groundspeed Altitude Reporting Facility
EDT Latitude Longitude Course Direction KTS MPH feet Rate Location/Type
09:18AM 39.8333 -104.7167 341° North 184 212 7,600  Level Denver TRACON
09:19AM 39.8500 -104.7667 293° West 189 217 8,800 1,440 Climbing Denver TRACON
09:20AM 39.8667 -104.8333 288° West 194 223 10,400 1,560 Climbing Denver TRACON
09:21AM 39.8792 -104.8569 305° West 194 223 11,100 1,500 Climbing Denver Center
09:22AM 39.9283 -104.8817 339° North 192 221 12,600 1,320 Climbing Denver Center
09:23AM 39.9814 -104.8822 360° North 192 221 13,800 1,200 Climbing Denver Center
09:24AM 40.0579 -104.7664 341° North  Level FlightAware Approximate
09:24AM 40.0353 -104.8872 356° North 193 222 15,100  Level Denver Center
09:25AM 40.0917 -104.8931 355° North 201 231 16,300 1,200 Climbing Denver Center
09:26AM 40.1453 -104.8964 357° North 193 222 17,600 960 Climbing Denver Center
09:27AM 40.2003 -104.8967 360° North 196 226 18,300 840 Climbing Denver Center
09:28AM 40.2583 -104.9003 357° North 196 226 19,500 720 Climbing Denver Center
09:29AM 40.3261 -104.9033 358° North 199 229 20,000 240 Climbing Denver Center
09:30AM 40.3897 -104.9139 353° North 231 266 20,100  Climbing Denver Center
09:31AM 40.4533 -104.9478 338° Northwest 243 280 20,000 -60 Descending Denver Center
09:32AM 40.5206 -104.9728 344° North 252 290 20,000  Level Denver Center
09:33AM 40.5908 -104.9858 352° North 255 293 20,000  Level Denver Center
09:34AM 40.6647 -105.0125 345° North 255 293 20,000  Level Denver Center
09:35AM 40.7314 -105.0469 339° North 258 297 20,100  Climbing Denver Center
09:36AM 40.7861 -105.1031 322° Northwest 255 293 20,100 -60 Level Denver Center
09:37AM 40.8317 -105.1733 311° West 258 297 20,000 -60 Descending Denver Center
09:38AM 40.8936 -105.2444 319° Northwest 262 302 20,000  Level Denver Center
09:39AM 40.9483 -105.2983 323° Northwest 260 299 20,000  Level Denver Center
09:40AM 40.9994 -105.3611 317° Northwest 259 298 20,100  Climbing Denver Center
09:41AM 41.0603 -105.4353 317° Northwest 263 303 20,100 -60 Level Denver Center
09:42AM 41.1169 -105.4914 323° Northwest 265 305 20,000 -60 Descending Denver Center
09:43AM 41.1697 -105.5531 319° Northwest 265 305 20,000  Level Denver Center
09:44AM 41.2331 -105.6247 320° Northwest 269 310 20,000  Level Denver Center
09:45AM 41.2892 -105.6789 324° Northwest 262 302 20,000  Level Denver Center
09:46AM 41.3519 -105.7506 319° Northwest 264 304 20,000  Level Denver Center
09:47AM 41.4056 -105.8072 322° Northwest 260 299 20,000  Level Denver Center
09:48AM 41.4617 -105.8611 324° Northwest 260 299 20,000  Level Denver Center
09:49AM 41.5247 -105.9308 320° Northwest 261 300 20,000  Level Denver Center
09:50AM 41.5697 -106.0014 310° West 260 299 20,000  Level Denver Center
09:51AM 41.6172 -106.0708 312° West 263 303 20,000  Level Denver Center
09:52AM 41.6744 -106.1506 314° West 264 304 20,000  Level Denver Center
09:53AM 41.7189 -106.2200 311° West 261 300 20,000  Level Denver Center
09:54AM 41.7761 -106.3008 314° West 265 305 20,000  Level Denver Center
09:55AM 41.8208 -106.3739 309° West 265 305 20,000  Level Denver Center
09:56AM 41.8592 -106.4356 310° West 269 310 20,100  Climbing Denver Center
09:57AM 41.9094 -106.5392 303° West 267 307 20,000 -60 Descending Denver Center
09:58AM 41.9406 -106.6264 296° West 271 312 20,000  Level Denver Center
10:00AM 41.9775 -106.7297 296° West 275 316 20,000  Level Denver Center
10:01AM 42.0103 -106.8153 297° West 269 310 20,000  Level Denver Center
10:02AM 42.0514 -106.9128 300° West 268 308 20,000  Level Denver Center
10:03AM 42.0878 -106.9950 301° West 267 307 20,000  Level Denver Center
10:04AM 42.1258 -107.0742 303° West 264 304 20,000  Level Denver Center
10:05AM 42.1706 -107.1692 302° West 268 308 20,000  Level Denver Center
10:06AM 42.2108 -107.2469 305° West 266 306 20,000  Level Denver Center
10:07AM 42.2628 -107.3331 309° West 266 306 20,000  Level Denver Center
10:08AM 42.3072 -107.4067 309° West 264 304 20,100  Climbing Denver Center
10:09AM 42.3522 -107.4803 310° West 263 303 20,000 -60 Descending Denver Center
10:09AM 42.3925 -107.5381 313° West 265 305 20,000 -60 Level Salt Lake Center
10:10AM 42.4456 -107.5972 321° Northwest 261 300 19,900 -180 Descending Salt Lake Center
10:12AM 42.5056 -107.6719 317° Northwest 261 300 19,700 -660 Descending Salt Lake Center
10:13AM 42.5603 -107.7361 319° Northwest 270 311 18,600 -1,080 Descending Salt Lake Center
10:14AM 42.6261 -107.8161 318° Northwest 281 323 17,600 -1,080 Descending Salt Lake Center
10:15AM 42.6817 -107.8872 317° Northwest 285 328 16,500 -1,140 Descending Salt Lake Center
10:16AM 42.7294 -107.9675 309° West 285 328 15,300 -1,440 Descending Salt Lake Center
10:17AM 42.7831 -108.0592 309° West 281 323 13,600 -1,620 Descending Salt Lake Center
10:18AM 42.8350 -108.1228 318° Northwest 271 312 12,100 -1,500 Descending Salt Lake Center